Time;durP1;ratioP1;P1;durP2;ratioP2;P2;SDS_P1;SDS_P2;PMS_P1;PMS_P2;Temp;Humidity;BMP_temperature;BMP_pressure;BME280_temperature;BME280_humidity;BME280_pressure;Samples;Min_cycle;Max_cycle;Signal;HPM_P1;HPM_P2
2023/08/04 00:00:18;;;;;;;5.65;2.10;;;;;;;19.72;77.43;101171.63;5012724;28;20125;-45
2023/08/04 00:02:45;;;;;;;4.13;1.90;;;;;;;19.71;77.42;101172.50;5012971;28;20060;-46
2023/08/04 00:05:10;;;;;;;6.25;2.10;;;;;;;19.74;77.35;101167.19;5011991;28;20041;-46
2023/08/04 00:07:36;;;;;;;6.03;2.10;;;;;;;19.81;77.04;101159.09;5012024;28;20129;-43
2023/08/04 00:10:03;;;;;;;7.75;2.00;;;;;;;19.79;77.06;101162.66;5013070;28;20057;-43
2023/08/04 00:12:29;;;;;;;6.30;1.95;;;;;;;19.78;77.21;101168.84;5013160;28;20702;-46
2023/08/04 00:14:55;;;;;;;5.28;1.83;;;;;;;19.72;77.43;101164.56;5013100;28;20129;-47
2023/08/04 00:17:20;;;;;;;7.65;2.00;;;;;;;19.74;77.37;101161.88;5012981;28;20120;-42
2023/08/04 00:19:45;;;;;;;5.47;2.05;;;;;;;19.71;77.48;101167.22;5013062;28;20037;-42
2023/08/04 00:22:11;;;;;;;6.78;2.20;;;;;;;19.64;77.95;101168.25;5012582;28;20154;-46
2023/08/04 00:24:36;;;;;;;7.30;2.10;;;;;;;19.76;77.33;101157.44;5013069;28;20088;-43
2023/08/04 00:27:02;;;;;;;6.57;2.55;;;;;;;19.72;77.08;101169.84;5012516;28;20049;-44
2023/08/04 00:29:28;;;;;;;9.85;2.78;;;;;;;19.47;78.03;101168.56;5013004;28;20591;-47
2023/08/04 00:31:53;;;;;;;6.85;2.80;;;;;;;19.57;77.66;101162.22;5012292;28;20045;-47
2023/08/04 00:34:19;;;;;;;7.93;2.88;;;;;;;19.47;77.61;101160.63;5012526;28;20042;-42
2023/08/04 00:36:45;;;;;;;9.07;3.03;;;;;;;19.21;78.63;101158.41;5012979;28;20493;-43
2023/08/04 00:39:11;;;;;;;9.05;2.90;;;;;;;19.31;78.52;101162.66;5013135;28;20034;-43
2023/08/04 00:41:37;;;;;;;8.20;2.50;;;;;;;19.46;77.52;101161.53;5013803;28;20311;-43
2023/08/04 00:44:02;;;;;;;8.25;2.58;;;;;;;19.25;78.19;101156.59;5013706;28;20118;-43
2023/08/04 00:46:29;;;;;;;8.93;2.30;;;;;;;19.31;78.19;101167.94;5013734;28;20213;-46
2023/08/04 00:48:56;;;;;;;6.93;2.15;;;;;;;19.57;77.56;101175.44;5011168;28;20038;-44
2023/08/04 00:51:22;;;;;;;3.95;1.92;;;;;;;19.66;77.25;101169.97;5011970;28;20522;-42
2023/08/04 00:53:47;;;;;;;7.50;2.10;;;;;;;19.59;77.63;101172.75;5012101;28;20034;-45
2023/08/04 00:56:13;;;;;;;7.63;2.05;;;;;;;19.57;77.80;101174.56;5012079;28;20042;-48
2023/08/04 00:58:38;;;;;;;6.25;1.80;;;;;;;19.78;77.01;101174.13;5012282;28;20129;-46
2023/08/04 01:01:03;;;;;;;7.65;2.10;;;;;;;19.66;77.17;101175.25;5010866;28;20057;-45
2023/08/04 01:03:29;;;;;;;9.80;2.42;;;;;;;19.66;76.96;101183.19;5011590;28;20508;-45
2023/08/04 01:06:14;;;;;;;7.03;2.33;;;;;;;19.68;76.95;101184.03;5011827;28;20473;-44
2023/08/04 01:08:48;;;;;;;8.52;2.38;;;;;;;19.33;78.45;101184.63;5011991;28;20042;-48
2023/08/04 01:11:17;;;;;;;;;;;;;;;19.58;77.50;101186.91;5012214;28;20038;-46
2023/08/04 01:13:44;;;;;;;5.18;1.80;;;;;;;19.70;76.91;101186.66;5011799;28;19914;-43
2023/08/04 01:16:10;;;;;;;11.38;2.28;;;;;;;19.34;77.81;101183.72;5011480;28;20073;-47
2023/08/04 01:18:35;;;;;;;6.00;1.95;;;;;;;19.52;77.56;101182.56;5012001;28;20042;-44
2023/08/04 01:21:03;;;;;;;6.60;2.10;;;;;;;19.62;77.10;101185.94;5011225;28;20042;-44
2023/08/04 01:23:28;;;;;;;7.70;2.10;;;;;;;19.66;77.05;101182.31;5011366;28;20034;-45
2023/08/04 01:25:54;;;;;;;6.85;2.58;;;;;;;19.64;77.25;101184.13;5011695;28;20049;-45
2023/08/04 01:28:20;;;;;;;5.47;2.10;;;;;;;19.67;77.08;101182.28;5011390;28;20026;-45
2023/08/04 01:30:48;;;;;;;4.15;1.88;;;;;;;19.69;76.67;101179.63;5011725;28;20493;-43
2023/08/04 01:33:14;;;;;;;7.68;2.08;;;;;;;19.59;77.14;101183.31;5010806;28;20045;-42
2023/08/04 01:35:42;;;;;;;9.23;2.20;;;;;;;19.58;77.22;101184.25;5013558;28;20041;-43
2023/08/04 01:38:08;;;;;;;6.55;2.20;;;;;;;19.62;76.97;101188.56;5011218;28;20034;-45
2023/08/04 01:40:33;;;;;;;6.03;2.15;;;;;;;19.64;77.11;101182.34;5011342;28;20061;-46
2023/08/04 01:42:58;;;;;;;5.10;2.22;;;;;;;19.72;76.98;101190.13;5011802;28;20037;-49
2023/08/04 01:45:23;;;;;;;5.10;1.90;;;;;;;19.64;76.96;101192.91;5013702;28;20607;-47
2023/08/04 01:47:49;;;;;;;7.93;2.22;;;;;;;19.64;77.02;101195.56;5012518;28;20034;-48
2023/08/04 01:50:14;;;;;;;4.88;1.90;;;;;;;19.54;77.63;101193.13;5010762;28;20030;-43
2023/08/04 01:52:40;;;;;;;6.63;2.15;;;;;;;19.55;77.59;101194.88;5010924;28;20034;-43
2023/08/04 01:55:05;;;;;;;6.43;2.20;;;;;;;19.48;77.83;101198.53;5009332;28;20477;-43
2023/08/04 01:57:31;;;;;;;7.82;2.17;;;;;;;19.49;77.92;101192.34;5011482;28;20042;-43
2023/08/04 01:59:56;;;;;;;6.43;2.10;;;;;;;19.51;77.68;101198.47;5010807;28;20092;-44
2023/08/04 02:02:21;;;;;;;5.85;2.20;;;;;;;19.37;78.44;101204.84;5010355;28;20027;-45
2023/08/04 02:04:47;;;;;;;5.75;2.20;;;;;;;19.29;78.39;101201.47;5010761;28;20038;-43
2023/08/04 02:07:12;;;;;;;7.38;2.00;;;;;;;19.14;79.24;101200.84;5010601;28;20040;-44
2023/08/04 02:09:38;;;;;;;9.70;2.20;;;;;;;18.85;80.01;101204.81;5011124;28;20061;-45
2023/08/04 02:12:03;;;;;;;4.85;2.10;;;;;;;19.18;79.00;101202.53;5010115;28;20113;-44
2023/08/04 02:14:29;;;;;;;6.90;2.25;;;;;;;19.04;78.47;101201.00;5009983;28;20095;-44
2023/08/04 02:16:55;;;;;;;4.72;1.98;;;;;;;19.25;77.44;101205.06;5010902;28;20125;-43
2023/08/04 02:19:22;;;;;;;4.43;1.95;;;;;;;19.15;77.45;101206.09;5010147;28;20034;-45
2023/08/04 02:21:48;;;;;;;6.05;1.95;;;;;;;19.17;77.15;101212.25;5010179;28;20084;-43
2023/08/04 02:24:13;;;;;;;3.63;1.80;;;;;;;19.24;76.87;101207.72;5009939;28;20044;-48
2023/08/04 02:26:39;;;;;;;4.03;1.70;;;;;;;19.25;76.91;101213.00;5010578;28;20037;-45
2023/08/04 02:29:04;;;;;;;6.13;1.80;;;;;;;19.05;77.98;101213.31;5009809;28;20040;-44
2023/08/04 02:31:32;;;;;;;6.45;1.83;;;;;;;19.03;78.16;101220.38;5010707;28;20061;-47
2023/08/04 02:33:57;;;;;;;3.90;1.80;;;;;;;19.12;77.81;101224.66;5010119;28;20068;-49
2023/08/04 02:36:23;;;;;;;4.90;1.90;;;;;;;19.32;77.25;101216.41;5009942;28;20038;-47
2023/08/04 02:38:48;;;;;;;5.07;1.80;;;;;;;19.20;77.52;101217.50;5010358;28;20048;-43
2023/08/04 02:41:14;;;;;;;6.72;2.10;;;;;;;19.11;77.96;101224.69;5009888;28;20038;-45
2023/08/04 02:43:39;;;;;;;4.32;1.70;;;;;;;19.21;77.34;101223.66;5009768;28;20045;-47
2023/08/04 02:46:05;;;;;;;5.47;2.03;;;;;;;19.24;77.16;101229.75;5009686;28;20067;-45
2023/08/04 02:48:31;;;;;;;5.25;1.70;;;;;;;19.32;77.05;101227.84;5010446;28;20041;-43
2023/08/04 02:51:03;;;;;;;7.80;2.00;;;;;;;19.34;77.23;101239.25;5010474;28;20057;-46
2023/08/04 02:53:30;;;;;;;3.67;1.42;;;;;;;19.41;77.30;101238.25;5009590;28;20471;-45
2023/08/04 02:55:55;;;;;;;4.80;1.80;;;;;;;19.51;77.19;101235.50;5009980;28;20034;-44
2023/08/04 02:58:22;;;;;;;5.13;1.60;;;;;;;19.51;77.14;101239.03;5009587;28;20373;-47
2023/08/04 03:00:47;;;;;;;3.15;1.60;;;;;;;19.58;76.96;101235.34;5009897;28;20579;-44
2023/08/04 03:03:13;;;;;;;6.05;1.88;;;;;;;19.56;76.93;101233.66;5008943;28;20121;-45
2023/08/04 03:05:38;;;;;;;3.75;1.70;;;;;;;19.60;76.91;101238.84;5009968;28;20567;-44
2023/08/04 03:08:03;;;;;;;4.90;1.80;;;;;;;19.59;77.07;101241.50;5009675;28;20500;-44
2023/08/04 03:10:29;;;;;;;3.53;1.60;;;;;;;19.65;77.04;101247.56;5010183;28;20551;-49
2023/08/04 03:12:54;;;;;;;8.63;2.10;;;;;;;19.23;78.70;101238.56;5009235;28;20042;-43
2023/08/04 03:15:19;;;;;;;4.93;1.90;;;;;;;19.02;80.40;101246.84;5009435;28;20432;-43
2023/08/04 03:17:45;;;;;;;7.28;2.10;;;;;;;19.16;80.11;101244.84;5010023;28;20068;-42
2023/08/04 03:20:10;;;;;;;4.78;1.88;;;;;;;19.36;78.96;101234.81;5009522;28;20064;-43
2023/08/04 03:22:36;;;;;;;8.15;2.28;;;;;;;19.31;79.45;101243.72;5009368;28;20052;-45
2023/08/04 03:25:01;;;;;;;7.10;2.10;;;;;;;19.37;79.59;101244.50;5009214;28;20053;-45
2023/08/04 03:27:27;;;;;;;4.47;2.03;;;;;;;19.46;78.92;101245.28;5009845;28;20088;-43
2023/08/04 03:29:52;;;;;;;3.83;1.80;;;;;;;19.38;79.26;101246.25;5009995;28;20120;-44
2023/08/04 03:32:18;;;;;;;6.80;1.95;;;;;;;19.45;79.24;101249.69;5009024;28;21103;-47
2023/08/04 03:34:43;;;;;;;5.70;1.92;;;;;;;19.55;78.80;101248.63;5009547;28;20300;-42
2023/08/04 03:37:09;;;;;;;4.05;1.83;;;;;;;19.57;78.62;101254.78;5009143;28;20058;-42
2023/08/04 03:39:34;;;;;;;4.45;1.70;;;;;;;19.64;78.38;101253.75;5009756;28;20563;-49
2023/08/04 03:41:59;;;;;;;9.23;2.13;;;;;;;19.59;78.52;101257.38;5008724;28;20592;-41
2023/08/04 03:44:25;;;;;;;3.75;1.75;;;;;;;19.57;78.59;101257.44;5009517;28;20454;-47
2023/08/04 03:46:50;;;;;;;4.50;2.00;;;;;;;19.57;78.58;101257.44;5010012;28;20125;-43
2023/08/04 03:49:15;;;;;;;3.83;1.80;;;;;;;19.59;78.54;101266.19;5009305;28;20580;-42
2023/08/04 03:51:41;;;;;;;5.82;2.00;;;;;;;19.57;78.40;101262.72;5009167;28;20117;-46
2023/08/04 03:54:06;;;;;;;3.88;1.73;;;;;;;19.54;79.02;101267.16;5009063;28;20698;-44
2023/08/04 03:56:31;;;;;;;4.63;1.90;;;;;;;19.50;79.09;101273.41;5009454;28;20060;-44
2023/08/04 03:58:57;;;;;;;4.05;1.88;;;;;;;19.41;79.83;101274.41;5009878;28;20092;-45
2023/08/04 04:01:22;;;;;;;4.13;2.10;;;;;;;19.46;79.51;101267.28;5009109;28;20054;-47
2023/08/04 04:03:47;;;;;;;5.85;1.85;;;;;;;19.39;80.07;101276.22;5009118;28;20107;-49
2023/08/04 04:06:13;;;;;;;4.63;1.73;;;;;;;19.44;79.64;101274.38;5009062;28;20547;-47
2023/08/04 04:08:38;;;;;;;3.78;1.83;;;;;;;19.49;79.63;101276.97;5009455;28;20041;-44
2023/08/04 04:11:04;;;;;;;4.70;1.83;;;;;;;19.42;79.74;101274.38;5008720;28;20092;-46
2023/08/04 04:13:29;;;;;;;3.95;1.90;;;;;;;19.50;79.37;101284.88;5008866;28;20109;-43
2023/08/04 04:15:54;;;;;;;4.72;1.77;;;;;;;19.55;79.36;101276.84;5009115;28;20034;-45
2023/08/04 04:18:20;;;;;;;4.65;1.98;;;;;;;19.62;79.04;101279.38;5008992;28;20553;-40
2023/08/04 04:20:45;;;;;;;4.55;1.85;;;;;;;19.59;79.42;101278.53;5009338;28;20038;-40
2023/08/04 04:23:10;;;;;;;2.88;1.85;;;;;;;19.63;79.04;101282.91;5009140;28;20033;-44
2023/08/04 04:25:36;;;;;;;3.30;1.90;;;;;;;19.57;79.21;101288.28;5009348;28;20037;-42
2023/08/04 04:28:01;;;;;;;5.93;2.10;;;;;;;19.60;79.39;101286.44;5008983;28;20527;-42
2023/08/04 04:30:26;;;;;;;5.70;1.90;;;;;;;19.62;79.23;101279.38;5009447;28;20113;-46
2023/08/04 04:32:52;;;;;;;5.90;2.05;;;;;;;19.67;79.29;101289.88;5008996;28;20042;-42
2023/08/04 04:35:17;;;;;;;3.88;1.80;;;;;;;19.64;79.42;101290.78;5009146;28;20088;-43
2023/08/04 04:37:42;;;;;;;3.67;1.90;;;;;;;19.68;79.67;101294.25;5011914;28;20048;-42
2023/08/04 04:40:08;;;;;;;3.28;1.88;;;;;;;19.70;79.57;101295.97;5012096;28;20053;-43
2023/08/04 04:42:33;;;;;;;6.15;2.38;;;;;;;19.47;80.50;101318.41;5012359;28;20072;-45
2023/08/04 04:45:00;;;;;;;3.78;1.85;;;;;;;19.66;79.72;101312.81;5012375;28;20034;-44
2023/08/04 04:47:25;;;;;;;4.78;1.90;;;;;;;19.59;80.17;101311.16;5012739;28;20096;-42
2023/08/04 04:49:51;;;;;;;7.88;2.30;;;;;;;19.50;80.38;101313.09;5012438;28;20035;-45
2023/08/04 04:52:30;;;;;;;5.97;2.20;;;;;;;19.37;80.21;101318.53;5011744;28;20460;-44
2023/08/04 04:54:55;;;;;;;5.95;2.33;;;;;;;19.37;80.30;101325.59;5012390;28;20041;-41
2023/08/04 04:57:21;;;;;;;4.93;2.25;;;;;;;19.48;79.55;101323.69;5011932;28;20049;-42
2023/08/04 04:59:47;;;;;;;3.03;1.80;;;;;;;19.41;79.02;101337.84;5012091;28;20037;-43
2023/08/04 05:02:12;;;;;;;3.90;1.90;;;;;;;19.69;78.24;101331.28;5011522;28;20088;-50
2023/08/04 05:04:37;;;;;;;3.58;1.88;;;;;;;19.43;78.11;101328.16;5012615;28;20435;-46
2023/08/04 05:07:03;;;;;;;4.40;1.95;;;;;;;19.65;77.96;101336.63;5012947;28;20034;-45
2023/08/04 05:09:28;;;;;;;3.67;1.88;;;;;;;19.72;77.73;101332.97;5013082;28;20037;-44
2023/08/04 05:11:53;;;;;;;4.90;1.80;;;;;;;19.55;77.48;101338.56;5012706;28;20038;-43
2023/08/04 05:14:19;;;;;;;4.18;1.90;;;;;;;19.16;77.96;101341.75;5011785;28;20083;-45
2023/08/04 05:16:45;;;;;;;3.92;1.90;;;;;;;19.35;77.18;101338.84;5012186;28;20033;-43
2023/08/04 05:19:10;;;;;;;3.75;1.83;;;;;;;19.58;77.14;101338.50;5007418;28;20038;-47
2023/08/04 05:21:36;;;;;;;2.95;1.70;;;;;;;19.67;76.26;101351.59;5011891;28;20045;-43
2023/08/04 05:24:01;;;;;;;4.30;1.70;;;;;;;19.90;75.84;101345.91;5011732;28;20042;-46
2023/08/04 05:26:26;;;;;;;6.38;1.65;;;;;;;19.89;75.75;101348.56;5011711;28;20054;-44
2023/08/04 05:28:52;;;;;;;3.17;1.75;;;;;;;19.56;76.21;101350.91;5011681;28;20041;-44
2023/08/04 05:31:17;;;;;;;4.75;2.00;;;;;;;19.47;77.45;101352.78;5011317;28;20038;-42
2023/08/04 05:33:42;;;;;;;3.70;1.88;;;;;;;19.52;77.04;101353.63;5011351;28;20033;-44
2023/08/04 05:36:08;;;;;;;8.50;2.13;;;;;;;19.51;77.19;101360.69;5011157;28;20384;-48
2023/08/04 05:38:33;;;;;;;4.32;1.58;;;;;;;19.50;77.16;101358.94;5011686;28;20030;-42
2023/08/04 05:41:01;;;;;;;4.43;1.80;;;;;;;19.37;77.81;101355.56;5011156;28;20121;-44
2023/08/04 05:43:26;;;;;;;4.57;1.70;;;;;;;19.58;77.66;101358.81;5011003;28;20038;-49
2023/08/04 05:45:52;;;;;;;3.97;1.83;;;;;;;19.47;78.25;101358.94;5011515;28;20129;-44
2023/08/04 05:48:17;;;;;;;3.28;1.75;;;;;;;19.68;77.74;101365.69;5010939;28;20411;-44
2023/08/04 05:50:43;;;;;;;3.45;1.70;;;;;;;19.79;77.71;101366.38;5011330;28;20034;-46
2023/08/04 05:53:08;;;;;;;3.15;1.85;;;;;;;19.79;78.10;101364.59;5010296;28;20044;-45
2023/08/04 05:55:35;;;;;;;5.13;1.80;;;;;;;19.94;78.01;101373.19;5011178;28;20496;-44
2023/08/04 05:58:01;;;;;;;4.32;2.00;;;;;;;19.97;78.54;101365.19;5010713;28;20034;-48
2023/08/04 06:00:26;;;;;;;3.67;1.67;;;;;;;20.12;78.52;101368.47;5010979;28;20050;-45
2023/08/04 06:02:52;;;;;;;5.20;1.90;;;;;;;19.89;79.28;101377.66;5010723;28;20037;-44
2023/08/04 06:05:17;;;;;;;4.47;1.80;;;;;;;20.03;78.81;101380.97;5010366;28;20042;-48
2023/08/04 06:07:43;;;;;;;4.05;1.70;;;;;;;20.09;79.09;101378.22;5011161;28;20037;-44
2023/08/04 06:10:08;;;;;;;6.30;1.80;;;;;;;20.29;79.58;101383.16;5010559;28;20416;-43
2023/08/04 06:12:34;;;;;;;5.88;2.60;;;;;;;20.42;79.49;101382.06;5009096;28;20062;-47
2023/08/04 06:15:00;;;;;;;4.82;2.00;;;;;;;20.45;78.94;101395.22;5010285;28;20377;-47
2023/08/04 06:17:26;;;;;;;7.10;1.70;;;;;;;20.64;78.83;101386.03;5010763;28;20033;-45
2023/08/04 06:19:51;;;;;;;8.25;1.80;;;;;;;20.33;77.28;101388.38;5010702;28;20092;-44
2023/08/04 06:22:17;;;;;;;6.97;1.60;;;;;;;20.29;76.99;101391.97;5009875;28;20054;-42
2023/08/04 06:24:42;;;;;;;5.18;1.50;;;;;;;20.77;76.87;101398.13;5010383;28;20037;-43
2023/08/04 06:27:08;;;;;;;4.55;1.20;;;;;;;21.46;73.75;101397.53;5010138;28;20037;-45
2023/08/04 06:29:34;;;;;;;5.07;1.58;;;;;;;21.47;73.29;101393.97;5010596;28;20038;-45
2023/08/04 06:31:59;;;;;;;5.38;1.60;;;;;;;21.63;71.68;101403.31;5009661;28;20112;-44
2023/08/04 06:34:25;;;;;;;5.47;1.50;;;;;;;21.46;72.16;101408.16;5010353;28;20550;-45
2023/08/04 06:36:50;;;;;;;5.15;1.50;;;;;;;21.55;71.13;101409.69;5010318;28;20049;-43
2023/08/04 06:39:16;;;;;;;4.22;1.23;;;;;;;21.49;70.15;101408.06;5010058;28;20066;-42
2023/08/04 06:41:41;;;;;;;4.50;1.40;;;;;;;21.13;71.22;101411.50;5009972;28;20544;-44
2023/08/04 06:44:07;;;;;;;6.63;1.67;;;;;;;21.01;72.66;101418.81;5009798;28;20053;-45
2023/08/04 06:46:32;;;;;;;5.30;1.48;;;;;;;21.61;71.99;101421.06;5010287;28;20069;-43
2023/08/04 06:48:58;;;;;;;3.65;1.38;;;;;;;22.00;71.93;101416.59;5010870;28;20140;-42
2023/08/04 06:51:23;;;;;;;7.47;1.60;;;;;;;22.60;67.88;101421.22;5011125;28;20412;-48
2023/08/04 06:53:49;;;;;;;7.95;1.88;;;;;;;22.65;66.99;101425.47;5010975;28;20417;-44
2023/08/04 06:56:14;;;;;;;6.18;1.75;;;;;;;22.11;67.50;101425.16;5009696;28;20049;-45
2023/08/04 06:58:39;;;;;;;5.55;1.73;;;;;;;22.24;66.97;101428.38;5010163;28;20458;-46
2023/08/04 07:01:05;;;;;;;6.63;1.75;;;;;;;21.64;68.97;101433.38;5009086;28;20694;-42
2023/08/04 07:03:30;;;;;;;10.20;2.20;;;;;;;21.65;69.79;101435.13;5009714;28;20500;-46
2023/08/04 07:05:55;;;;;;;7.25;1.70;;;;;;;21.34;70.28;101438.50;5009891;28;20453;-45
2023/08/04 07:08:21;;;;;;;4.65;1.52;;;;;;;21.25;71.29;101437.78;5009608;28;20563;-46
2023/08/04 07:10:47;;;;;;;6.97;1.90;;;;;;;21.18;70.53;101442.34;5009718;28;20076;-46
2023/08/04 07:13:12;;;;;;;8.35;1.90;;;;;;;20.87;71.00;101443.84;5009148;28;20428;-45
2023/08/04 07:15:38;;;;;;;5.75;1.50;;;;;;;20.80;71.64;101448.41;5008084;28;20420;-45
2023/08/04 07:18:03;;;;;;;4.82;1.75;;;;;;;21.55;70.65;101447.72;5009639;28;20037;-45
2023/08/04 07:20:29;;;;;;;6.32;1.70;;;;;;;20.97;71.27;101448.97;5009986;28;20136;-48
2023/08/04 07:22:54;;;;;;;4.45;1.67;;;;;;;20.92;71.12;101445.50;5009488;28;20037;-43
2023/08/04 07:25:20;;;;;;;6.47;1.52;;;;;;;21.10;69.54;101449.59;5009219;28;20033;-44
2023/08/04 07:27:45;;;;;;;5.47;1.90;;;;;;;21.15;69.83;101454.78;5009654;28;20501;-49
2023/08/04 07:30:11;;;;;;;6.40;1.60;;;;;;;21.27;69.11;101452.78;5009315;28;20444;-44
2023/08/04 07:32:36;;;;;;;6.72;1.60;;;;;;;21.99;67.81;101461.78;5008867;28;20492;-44
2023/08/04 07:35:02;;;;;;;6.70;1.67;;;;;;;22.27;65.21;101461.03;5008025;28;20034;-44
2023/08/04 07:37:28;;;;;;;5.47;1.90;;;;;;;22.56;63.47;101460.28;5009714;28;20543;-46
2023/08/04 07:39:54;;;;;;;8.45;1.92;;;;;;;23.40;62.38;101458.78;5009721;28;20184;-48
2023/08/04 07:42:19;;;;;;;7.55;2.10;;;;;;;24.06;59.85;101462.94;5008821;28;20523;-50
2023/08/04 07:44:44;;;;;;;7.57;1.90;;;;;;;22.89;62.52;101468.28;5009232;28;20073;-46
2023/08/04 07:47:10;;;;;;;6.18;1.65;;;;;;;23.25;61.42;101475.19;5008176;28;20132;-50
2023/08/04 07:49:35;;;;;;;4.93;1.70;;;;;;;23.23;61.29;101471.72;5009466;28;20096;-43
2023/08/04 07:52:00;;;;;;;7.43;1.90;;;;;;;23.07;62.37;101467.75;5008647;28;20042;-45
2023/08/04 07:54:26;;;;;;;6.53;1.90;;;;;;;22.50;63.56;101475.53;5009387;28;20037;-45
2023/08/04 07:56:51;;;;;;;7.35;1.85;;;;;;;21.78;65.65;101477.25;5009429;28;20068;-47
2023/08/04 07:59:16;;;;;;;5.63;1.80;;;;;;;21.71;65.46;101488.91;5008996;28;20515;-46
2023/08/04 08:01:42;;;;;;;5.35;1.80;;;;;;;21.79;66.87;101484.31;5008797;28;20045;-43
2023/08/04 08:04:07;;;;;;;5.78;1.80;;;;;;;21.54;67.52;101488.44;5008732;28;20065;-48
2023/08/04 08:06:32;;;;;;;7.80;1.95;;;;;;;21.73;68.15;101494.19;5009118;28;20125;-45
2023/08/04 08:08:58;;;;;;;7.85;2.42;;;;;;;22.04;68.15;101492.59;5009411;28;20515;-47
2023/08/04 08:11:23;;;;;;;6.82;1.98;;;;;;;22.61;66.01;101490.28;5008976;28;20073;-47
2023/08/04 08:13:48;;;;;;;7.82;2.03;;;;;;;22.23;66.10;101491.25;5012765;28;20033;-44
2023/08/04 08:16:15;;;;;;;7.68;1.60;;;;;;;22.05;64.83;101494.34;5012530;28;20206;-44
2023/08/04 08:18:41;;;;;;;4.07;1.45;;;;;;;21.57;65.09;101500.75;5013024;28;20088;-45
2023/08/04 08:21:08;;;;;;;8.30;1.70;;;;;;;22.07;65.71;101500.53;5012590;28;20046;-43
2023/08/04 08:23:34;;;;;;;5.45;1.55;;;;;;;22.01;64.78;101507.75;5012440;28;20038;-43
2023/08/04 08:26:00;;;;;;;6.30;1.30;;;;;;;21.73;63.17;101508.34;5012259;28;20038;-47
2023/08/04 08:28:25;;;;;;;7.45;1.50;;;;;;;21.66;63.97;101504.06;5012885;28;20045;-43
2023/08/04 08:30:51;;;;;;;7.30;1.50;;;;;;;22.31;64.08;101508.78;5012772;28;20041;-43
2023/08/04 08:33:16;;;;;;;5.53;1.30;;;;;;;22.47;64.19;101507.47;5012065;28;20038;-46
2023/08/04 08:35:41;;;;;;;3.38;1.30;;;;;;;22.60;63.39;101507.13;5012620;28;20044;-45
2023/08/04 08:38:07;;;;;;;6.43;1.50;;;;;;;22.53;62.01;101516.16;5012250;28;20056;-44
2023/08/04 08:40:32;;;;;;;6.50;1.50;;;;;;;22.76;62.56;101510.28;5012766;28;20069;-43
2023/08/04 08:42:57;;;;;;;4.57;1.25;;;;;;;23.21;60.18;101517.91;5012072;28;20030;-44
2023/08/04 08:45:30;;;;;;;8.73;1.50;;;;;;;22.83;59.38;101514.50;5011912;28;20420;-44
2023/08/04 08:47:56;;;;;;;3.47;1.20;;;;;;;22.97;58.63;101520.34;5012622;28;20037;-44
2023/08/04 08:50:26;;;;;;;4.05;1.27;;;;;;;23.36;58.27;101518.31;5012040;28;20026;-45
2023/08/04 08:53:04;;;;;;;5.50;1.35;;;;;;;24.02;56.04;101519.03;5011862;28;20172;-43
2023/08/04 08:55:31;;;;;;;6.93;1.48;;;;;;;23.93;56.52;101521.97;5012148;28;20076;-43
2023/08/04 08:57:56;;;;;;;5.32;1.30;;;;;;;23.61;57.36;101521.16;5010965;28;20042;-43
2023/08/04 09:00:22;;;;;;;5.28;1.48;;;;;;;23.68;58.11;101521.84;5011435;28;20038;-45
2023/08/04 09:02:48;;;;;;;6.72;1.30;;;;;;;23.94;56.29;101519.25;5011252;28;20030;-48
2023/08/04 09:05:16;;;;;;;2.80;1.02;;;;;;;23.78;56.33;101529.53;5011548;28;20096;-46
2023/08/04 09:07:41;;;;;;;4.15;1.02;;;;;;;23.19;57.43;101538.34;5012271;28;20041;-43
2023/08/04 09:10:07;;;;;;;6.93;1.35;;;;;;;22.35;62.28;101539.66;5011415;28;20029;-45
2023/08/04 09:12:33;;;;;;;3.65;1.17;;;;;;;22.01;63.50;101551.13;5011604;28;20042;-43
2023/08/04 09:14:58;;;;;;;3.75;1.25;;;;;;;22.06;64.60;101551.00;5011989;28;20026;-48
2023/08/04 09:17:37;;;;;;;4.18;1.20;;;;;;;22.24;63.47;101548.78;5011393;28;20042;-46
2023/08/04 09:20:05;;;;;;;8.43;1.30;;;;;;;22.07;65.41;101550.97;5011485;28;20042;-47
2023/08/04 09:22:32;;;;;;;7.43;1.40;;;;;;;22.16;66.01;101556.06;5010977;28;20038;-46
2023/08/04 09:25:01;;;;;;;12.45;2.00;;;;;;;21.90;67.39;101554.84;5011728;28;20033;-46
2023/08/04 09:27:35;;;;;;;5.95;1.50;;;;;;;21.40;66.99;101555.06;5011728;28;20048;-45
2023/08/04 09:30:03;;;;;;;;;;;;;;;21.64;65.58;101551.03;5010350;28;20061;-42
2023/08/04 09:32:28;;;;;;;4.93;1.38;;;;;;;22.22;64.66;101558.56;5011308;28;20388;-45
2023/08/04 09:35:02;;;;;;;5.70;1.55;;;;;;;22.54;63.87;101560.44;5011484;28;20117;-44
2023/08/04 09:37:29;;;;;;;5.57;1.50;;;;;;;22.91;61.97;101559.53;5011384;28;20034;-43
2023/08/04 09:39:55;;;;;;;3.78;1.50;;;;;;;22.76;61.47;101560.78;5011590;28;20052;-42
2023/08/04 09:42:21;;;;;;;5.30;1.30;;;;;;;22.91;61.90;101555.06;5011081;28;20392;-43
2023/08/04 09:44:53;;;;;;;5.97;1.30;;;;;;;22.58;61.00;101561.22;5011403;28;20049;-43
2023/08/04 09:47:28;;;;;;;3.00;1.00;;;;;;;22.36;58.91;101558.25;5011042;28;20125;-43
2023/08/04 09:49:54;;;;;;;2.75;1.10;;;;;;;22.71;59.74;101559.13;5011196;28;20034;-44
2023/08/04 09:52:30;;;;;;;3.05;1.00;;;;;;;22.46;61.06;101559.75;5010401;28;20037;-43
2023/08/04 09:54:56;;;;;;;2.38;0.95;;;;;;;22.27;60.91;101566.41;5010877;28;20660;-44
2023/08/04 09:57:23;;;;;;;3.13;0.90;;;;;;;22.51;59.50;101554.31;5010739;28;20026;-43
2023/08/04 09:59:50;;;;;;;3.50;1.10;;;;;;;22.66;60.24;101567.22;5010220;28;20129;-47
2023/08/04 10:02:18;;;;;;;1.50;0.70;;;;;;;22.01;58.29;101574.13;5010245;28;20038;-46
2023/08/04 10:04:47;;;;;;;5.80;1.25;;;;;;;22.56;59.22;101569.25;5010810;28;20077;-45
2023/08/04 10:07:14;;;;;;;4.00;0.95;;;;;;;22.45;59.74;101565.97;5010574;28;20034;-43
2023/08/04 10:09:40;;;;;;;2.63;1.05;;;;;;;23.33;57.93;101563.66;5010968;28;20034;-43
2023/08/04 10:12:06;;;;;;;3.38;0.88;;;;;;;23.25;56.74;101570.97;5009953;28;20034;-43
2023/08/04 10:14:32;;;;;;;3.25;1.10;;;;;;;22.92;58.30;101570.13;5010671;28;20034;-48
2023/08/04 10:16:58;;;;;;;1.67;0.85;;;;;;;22.73;59.33;101575.94;5010729;28;20060;-45
2023/08/04 10:19:23;;;;;;;2.28;0.80;;;;;;;22.62;58.34;101576.19;5011079;28;20042;-43
2023/08/04 10:21:49;;;;;;;2.00;0.70;;;;;;;22.84;57.20;101580.06;5009826;28;20037;-42
2023/08/04 10:24:19;;;;;;;1.95;0.70;;;;;;;22.95;58.06;101571.81;5010487;28;20104;-42
2023/08/04 10:26:54;;;;;;;1.40;0.65;;;;;;;22.87;57.38;101579.13;5010418;28;20064;-43
2023/08/04 10:29:29;;;;;;;3.92;0.80;;;;;;;23.00;59.80;101583.19;5010091;28;20113;-46
2023/08/04 10:31:56;;;;;;;2.20;0.90;;;;;;;22.90;58.76;101587.00;5010239;28;20033;-45
2023/08/04 10:34:23;;;;;;;3.05;0.90;;;;;;;23.47;57.68;101584.59;5009239;28;20073;-45
2023/08/04 10:37:11;;;;;;;2.20;0.85;;;;;;;23.41;56.93;101585.59;5010354;28;20587;-45
2023/08/04 10:39:40;;;;;;;1.98;0.80;;;;;;;23.83;57.28;101591.50;5010193;28;20073;-44
2023/08/04 10:42:14;;;;;;;2.30;0.88;;;;;;;24.13;57.89;101589.69;5009297;28;20038;-43
2023/08/04 10:44:50;;;;;;;2.72;0.70;;;;;;;23.97;55.51;101591.06;5010003;28;20045;-47
2023/08/04 10:47:29;;;;;;;2.70;0.90;;;;;;;23.51;56.32;101586.25;5009753;28;20029;-44
2023/08/04 10:49:55;;;;;;;2.47;1.00;;;;;;;24.30;56.97;101582.97;5010467;28;20038;-43
2023/08/04 10:52:21;;;;;;;4.28;0.80;;;;;;;23.71;56.23;101585.66;5009295;28;20377;-45
2023/08/04 10:54:47;;;;;;;3.38;1.13;;;;;;;23.35;58.33;101603.53;5010075;28;20049;-47
2023/08/04 10:57:23;;;;;;;3.92;1.10;;;;;;;23.48;58.44;101585.47;5010161;28;20113;-44
2023/08/04 10:59:49;;;;;;;5.00;0.90;;;;;;;23.25;59.22;101591.38;5010051;28;20045;-46
2023/08/04 11:02:19;;;;;;;4.13;1.00;;;;;;;23.13;59.31;101597.03;5009060;28;20042;-47
2023/08/04 11:04:45;;;;;;;3.13;0.85;;;;;;;23.43;58.09;101599.72;5009523;28;20408;-44
2023/08/04 11:07:11;;;;;;;4.47;1.00;;;;;;;23.10;58.67;101600.66;5009745;28;20030;-47
2023/08/04 11:09:37;;;;;;;5.43;0.90;;;;;;;23.35;59.29;101606.19;5009904;28;20048;-46
2023/08/04 11:12:08;;;;;;;4.13;0.95;;;;;;;23.92;59.23;101605.44;5008901;28;20042;-47
2023/08/04 11:14:35;;;;;;;4.25;1.00;;;;;;;23.75;58.30;101611.28;5009894;28;20065;-51
2023/08/04 11:17:01;;;;;;;3.17;1.00;;;;;;;23.60;57.57;101606.41;5009531;28;20034;-44
2023/08/04 11:19:31;;;;;;;4.45;1.00;;;;;;;23.74;58.73;101620.16;5009800;28;20069;-45
2023/08/04 11:21:57;;;;;;;3.28;1.00;;;;;;;23.59;57.42;101618.84;5009339;28;20038;-45